Yakutsk Airport
UEEE : now visible

Airfield :











YOU CAN JOIN US ON...

 
LOGIN :

Register | Disclaimer

   EN    FR    IT 

 









Legend :    VFR   Marginal VFR   IFR   Intensive IFR   Very Intensive IFR
Visi :
Ceiling :
>= 8 km
>= 3000ft
5 to 8 km
1000 to 3000 ft
1500m to 5 km
500 to 1000 ft
800 to 1500m
200 to 500 ft
< 800m
< 200 ft
Symbols :   Thunderstorms  Fog  Heavy snow  Heavy precipitations  Wind > 20 kt






- Airport Elevation : 325 ft
- IATA code : YKS


UEEE - Yakutsk

CURRENT METAR :
  • 250030Z 15002MPS CAVOK 25/18 Q1013 R23/09//64 NOSIG RMK QFE751

EXPIRED METARs :
  • 250000Z 15003MPS CAVOK 24/18 Q1013 R23/09//64 NOSIG RMK QFE751
  • 242330Z 14002MPS CAVOK 23/17 Q1013 R23/09//64 NOSIG RMK QFE751
  • 242300Z 16002MPS CAVOK 22/17 Q1013 R23/09//64 NOSIG RMK QFE751
  • 242230Z 17002MPS 140V210 CAVOK 21/17 Q1013 R23/09//64 NOSIG RMK QFE751
  • 242200Z 00000MPS CAVOK 21/17 Q1012 R23/09//64 NOSIG RMK QFE751
  • 242130Z 00000MPS CAVOK 19/16 Q1012 R23/09//64 NOSIG RMK QFE751
  • 242100Z 31001MPS CAVOK 18/15 Q1012 R23/09//64 NOSIG RMK QFE750
  • 242030Z 30001MPS CAVOK 17/15 Q1012 R23/09//64 NOSIG RMK QFE750
  • 242000Z 27001MPS CAVOK 17/15 Q1012 R23/09//64 NOSIG RMK QFE750

TAF TAF UEEE
Valid from the 25 at 00:00 until the 26 at 06:00 UTC


242300Z 2500/2606 22003G10MPS 9999 SCT030CB TX31/2506Z TN18/2519Z
TEMPO 2500/2509 VRB08MPS 2100 FU
UEEE FIR / Asia



MET'MAP, your aeronautical weather chart ! - Copyright ORBIFLY December 2007 - Disclaimer

ORBIFLY MET'MAP TEAM :

Programming & Development : Alexandra Zaïnal
Original concept : Baudouin d'Aumeries
Technical & hardware support : Manuel Goepfert
Assistance : Marc-Olivier Méhu




SOURCES & CREDITS :

   NOAA       Earth
Advisory